sensor_id;sensor_type;location;lat;lon;timestamp;P1;durP1;ratioP1;P2;durP2;ratioP2
14167;SDS011;7163;50.626;12.922;2023-02-28T00:03:08;16.30;;;8.97;;
14167;SDS011;7163;50.626;12.922;2023-02-28T00:08:08;11.10;;;6.53;;
14167;SDS011;7163;50.626;12.922;2023-02-28T00:13:09;12.73;;;6.83;;
14167;SDS011;7163;50.626;12.922;2023-02-28T00:18:09;9.90;;;6.10;;
14167;SDS011;7163;50.626;12.922;2023-02-28T00:23:10;7.37;;;5.40;;
14167;SDS011;7163;50.626;12.922;2023-02-28T00:28:10;7.57;;;5.33;;
14167;SDS011;7163;50.626;12.922;2023-02-28T00:33:10;9.17;;;5.13;;
14167;SDS011;7163;50.626;12.922;2023-02-28T00:38:11;7.20;;;5.13;;
14167;SDS011;7163;50.626;12.922;2023-02-28T00:43:13;8.57;;;5.40;;
14167;SDS011;7163;50.626;12.922;2023-02-28T00:48:13;9.57;;;5.57;;
14167;SDS011;7163;50.626;12.922;2023-02-28T00:53:14;7.63;;;5.07;;
14167;SDS011;7163;50.626;12.922;2023-02-28T00:58:14;9.07;;;5.83;;
14167;SDS011;7163;50.626;12.922;2023-02-28T01:03:16;8.73;;;5.87;;
14167;SDS011;7163;50.626;12.922;2023-02-28T01:08:17;8.00;;;5.20;;
14167;SDS011;7163;50.626;12.922;2023-02-28T01:13:19;10.87;;;6.27;;
14167;SDS011;7163;50.626;12.922;2023-02-28T01:18:19;11.17;;;6.00;;
14167;SDS011;7163;50.626;12.922;2023-02-28T01:23:20;8.27;;;5.50;;
14167;SDS011;7163;50.626;12.922;2023-02-28T01:28:23;9.07;;;5.60;;
14167;SDS011;7163;50.626;12.922;2023-02-28T01:33:23;8.80;;;5.60;;
14167;SDS011;7163;50.626;12.922;2023-02-28T01:38:24;7.80;;;5.23;;
14167;SDS011;7163;50.626;12.922;2023-02-28T01:43:25;7.60;;;5.33;;
14167;SDS011;7163;50.626;12.922;2023-02-28T01:48:31;10.87;;;5.73;;
14167;SDS011;7163;50.626;12.922;2023-02-28T01:53:34;9.73;;;6.20;;
14167;SDS011;7163;50.626;12.922;2023-02-28T01:58:37;10.73;;;6.20;;
14167;SDS011;7163;50.626;12.922;2023-02-28T02:03:38;10.27;;;5.97;;
14167;SDS011;7163;50.626;12.922;2023-02-28T02:08:39;9.30;;;6.20;;
14167;SDS011;7163;50.626;12.922;2023-02-28T02:30:08;11.77;;;7.10;;
14167;SDS011;7163;50.626;12.922;2023-02-28T02:40:27;12.60;;;7.70;;
14167;SDS011;7163;50.626;12.922;2023-02-28T02:45:32;13.10;;;7.67;;
14167;SDS011;7163;50.626;12.922;2023-02-28T02:50:38;10.13;;;6.80;;
14167;SDS011;7163;50.626;12.922;2023-02-28T02:55:43;9.33;;;6.27;;
14167;SDS011;7163;50.626;12.922;2023-02-28T03:00:47;11.47;;;7.00;;
14167;SDS011;7163;50.626;12.922;2023-02-28T03:05:50;10.83;;;7.43;;
14167;SDS011;7163;50.626;12.922;2023-02-28T03:10:51;9.90;;;7.00;;
14167;SDS011;7163;50.626;12.922;2023-02-28T03:21:37;13.03;;;7.87;;
14167;SDS011;7163;50.626;12.922;2023-02-28T03:26:45;13.53;;;7.67;;
14167;SDS011;7163;50.626;12.922;2023-02-28T03:32:00;15.53;;;8.70;;
14167;SDS011;7163;50.626;12.922;2023-02-28T03:37:06;12.53;;;8.50;;
14167;SDS011;7163;50.626;12.922;2023-02-28T03:42:12;12.47;;;8.20;;
14167;SDS011;7163;50.626;12.922;2023-02-28T03:47:15;12.20;;;7.87;;
14167;SDS011;7163;50.626;12.922;2023-02-28T03:52:18;13.17;;;7.80;;
14167;SDS011;7163;50.626;12.922;2023-02-28T03:57:26;12.10;;;7.83;;
14167;SDS011;7163;50.626;12.922;2023-02-28T04:02:31;14.73;;;8.30;;
14167;SDS011;7163;50.626;12.922;2023-02-28T04:07:31;11.20;;;7.63;;
14167;SDS011;7163;50.626;12.922;2023-02-28T04:12:32;12.10;;;7.73;;
14167;SDS011;7163;50.626;12.922;2023-02-28T04:17:32;13.93;;;8.00;;
14167;SDS011;7163;50.626;12.922;2023-02-28T04:22:33;11.60;;;7.73;;
14167;SDS011;7163;50.626;12.922;2023-02-28T04:27:33;12.73;;;8.30;;
14167;SDS011;7163;50.626;12.922;2023-02-28T04:32:34;11.97;;;7.80;;
14167;SDS011;7163;50.626;12.922;2023-02-28T04:37:34;10.80;;;7.70;;
14167;SDS011;7163;50.626;12.922;2023-02-28T04:42:36;12.63;;;7.73;;
14167;SDS011;7163;50.626;12.922;2023-02-28T04:47:37;12.87;;;7.70;;
14167;SDS011;7163;50.626;12.922;2023-02-28T04:52:37;12.63;;;8.10;;
14167;SDS011;7163;50.626;12.922;2023-02-28T04:57:37;18.30;;;9.77;;
14167;SDS011;7163;50.626;12.922;2023-02-28T05:02:38;20.50;;;10.50;;
14167;SDS011;7163;50.626;12.922;2023-02-28T05:07:39;22.60;;;11.73;;
14167;SDS011;7163;50.626;12.922;2023-02-28T05:12:39;19.27;;;9.70;;
14167;SDS011;7163;50.626;12.922;2023-02-28T05:17:40;16.83;;;9.70;;
14167;SDS011;7163;50.626;12.922;2023-02-28T05:22:40;17.33;;;9.43;;
14167;SDS011;7163;50.626;12.922;2023-02-28T05:27:41;17.10;;;9.97;;
14167;SDS011;7163;50.626;12.922;2023-02-28T05:32:42;20.40;;;10.47;;
14167;SDS011;7163;50.626;12.922;2023-02-28T05:37:42;17.00;;;10.07;;
14167;SDS011;7163;50.626;12.922;2023-02-28T05:42:43;16.43;;;9.43;;
14167;SDS011;7163;50.626;12.922;2023-02-28T05:47:43;17.43;;;9.93;;
14167;SDS011;7163;50.626;12.922;2023-02-28T05:52:44;16.27;;;9.50;;
14167;SDS011;7163;50.626;12.922;2023-02-28T05:57:44;19.07;;;11.13;;
14167;SDS011;7163;50.626;12.922;2023-02-28T06:02:45;79.17;;;35.90;;
14167;SDS011;7163;50.626;12.922;2023-02-28T06:07:45;46.53;;;22.00;;
14167;SDS011;7163;50.626;12.922;2023-02-28T06:12:45;25.50;;;12.50;;
14167;SDS011;7163;50.626;12.922;2023-02-28T06:17:46;19.50;;;11.17;;
14167;SDS011;7163;50.626;12.922;2023-02-28T06:22:47;17.57;;;10.50;;
14167;SDS011;7163;50.626;12.922;2023-02-28T06:27:47;24.13;;;14.03;;
14167;SDS011;7163;50.626;12.922;2023-02-28T06:32:48;18.73;;;11.23;;
14167;SDS011;7163;50.626;12.922;2023-02-28T06:37:49;71.17;;;27.20;;
14167;SDS011;7163;50.626;12.922;2023-02-28T06:42:49;101.17;;;39.73;;
14167;SDS011;7163;50.626;12.922;2023-02-28T06:47:50;44.20;;;21.07;;
14167;SDS011;7163;50.626;12.922;2023-02-28T06:52:52;40.17;;;22.03;;
14167;SDS011;7163;50.626;12.922;2023-02-28T06:57:54;50.27;;;26.70;;
14167;SDS011;7163;50.626;12.922;2023-02-28T07:02:55;46.30;;;25.03;;
14167;SDS011;7163;50.626;12.922;2023-02-28T07:07:55;45.67;;;25.83;;
14167;SDS011;7163;50.626;12.922;2023-02-28T07:12:57;53.63;;;26.90;;
14167;SDS011;7163;50.626;12.922;2023-02-28T07:17:57;57.47;;;29.23;;
14167;SDS011;7163;50.626;12.922;2023-02-28T07:22:58;49.70;;;27.97;;
14167;SDS011;7163;50.626;12.922;2023-02-28T07:27:58;48.27;;;27.30;;
14167;SDS011;7163;50.626;12.922;2023-02-28T07:32:59;48.20;;;25.43;;
14167;SDS011;7163;50.626;12.922;2023-02-28T07:37:59;34.20;;;19.70;;
14167;SDS011;7163;50.626;12.922;2023-02-28T07:43:00;23.03;;;12.13;;
14167;SDS011;7163;50.626;12.922;2023-02-28T07:48:01;20.20;;;11.07;;
14167;SDS011;7163;50.626;12.922;2023-02-28T07:53:02;19.03;;;10.27;;
14167;SDS011;7163;50.626;12.922;2023-02-28T07:58:02;17.13;;;9.50;;
14167;SDS011;7163;50.626;12.922;2023-02-28T08:03:03;18.40;;;10.80;;
14167;SDS011;7163;50.626;12.922;2023-02-28T08:08:03;20.13;;;10.33;;
14167;SDS011;7163;50.626;12.922;2023-02-28T08:13:04;16.50;;;10.27;;
14167;SDS011;7163;50.626;12.922;2023-02-28T08:18:04;18.27;;;10.73;;
14167;SDS011;7163;50.626;12.922;2023-02-28T08:23:05;18.50;;;10.10;;
14167;SDS011;7163;50.626;12.922;2023-02-28T08:28:05;18.67;;;11.10;;
14167;SDS011;7163;50.626;12.922;2023-02-28T08:33:05;20.00;;;11.03;;
14167;SDS011;7163;50.626;12.922;2023-02-28T08:38:06;20.83;;;11.10;;
14167;SDS011;7163;50.626;12.922;2023-02-28T08:43:06;20.13;;;11.90;;
14167;SDS011;7163;50.626;12.922;2023-02-28T08:48:07;21.13;;;12.17;;
14167;SDS011;7163;50.626;12.922;2023-02-28T08:53:07;42.33;;;20.97;;
14167;SDS011;7163;50.626;12.922;2023-02-28T08:58:08;26.83;;;16.30;;
14167;SDS011;7163;50.626;12.922;2023-02-28T09:03:08;25.63;;;13.57;;
14167;SDS011;7163;50.626;12.922;2023-02-28T09:08:08;36.70;;;19.90;;
14167;SDS011;7163;50.626;12.922;2023-02-28T09:13:09;88.83;;;37.77;;
14167;SDS011;7163;50.626;12.922;2023-02-28T09:18:09;33.80;;;20.53;;
14167;SDS011;7163;50.626;12.922;2023-02-28T09:23:10;21.10;;;12.87;;
14167;SDS011;7163;50.626;12.922;2023-02-28T09:28:12;20.10;;;12.07;;
14167;SDS011;7163;50.626;12.922;2023-02-28T09:33:14;20.80;;;11.67;;
14167;SDS011;7163;50.626;12.922;2023-02-28T09:38:16;21.07;;;12.73;;
14167;SDS011;7163;50.626;12.922;2023-02-28T09:43:20;18.77;;;11.20;;
14167;SDS011;7163;50.626;12.922;2023-02-28T09:48:25;15.00;;;10.57;;
14167;SDS011;7163;50.626;12.922;2023-02-28T09:53:29;17.10;;;11.10;;
14167;SDS011;7163;50.626;12.922;2023-02-28T09:58:40;16.10;;;10.33;;
14167;SDS011;7163;50.626;12.922;2023-02-28T10:09:08;17.57;;;10.70;;
14167;SDS011;7163;50.626;12.922;2023-02-28T10:24:41;19.57;;;12.40;;
14167;SDS011;7163;50.626;12.922;2023-02-28T10:29:44;84.00;;;46.17;;
14167;SDS011;7163;50.626;12.922;2023-02-28T10:35:15;26.67;;;16.00;;
14167;SDS011;7163;50.626;12.922;2023-02-28T10:45:20;24.93;;;18.03;;
14167;SDS011;7163;50.626;12.922;2023-02-28T10:55:38;17.03;;;10.23;;
14167;SDS011;7163;50.626;12.922;2023-02-28T11:00:39;13.13;;;8.90;;
14167;SDS011;7163;50.626;12.922;2023-02-28T11:05:40;21.30;;;12.87;;
14167;SDS011;7163;50.626;12.922;2023-02-28T11:10:46;13.47;;;9.03;;
14167;SDS011;7163;50.626;12.922;2023-02-28T11:15:51;12.87;;;8.80;;
14167;SDS011;7163;50.626;12.922;2023-02-28T11:20:55;13.40;;;8.40;;
14167;SDS011;7163;50.626;12.922;2023-02-28T11:25:58;12.70;;;9.90;;
14167;SDS011;7163;50.626;12.922;2023-02-28T11:31:02;16.03;;;10.17;;
14167;SDS011;7163;50.626;12.922;2023-02-28T11:36:09;11.17;;;8.10;;
14167;SDS011;7163;50.626;12.922;2023-02-28T12:08:41;35.00;;;22.77;;
14167;SDS011;7163;50.626;12.922;2023-02-28T12:13:51;19.42;;;14.73;;
14167;SDS011;7163;50.626;12.922;2023-02-28T12:19:13;11.23;;;7.18;;
14167;SDS011;7163;50.626;12.922;2023-02-28T13:12:15;14.00;;;9.10;;
14167;SDS011;7163;50.626;12.922;2023-02-28T14:41:33;16.57;;;10.57;;
14167;SDS011;7163;50.626;12.922;2023-02-28T14:46:38;14.57;;;9.07;;
14167;SDS011;7163;50.626;12.922;2023-02-28T14:51:40;15.00;;;10.40;;
14167;SDS011;7163;50.626;12.922;2023-02-28T14:56:41;14.43;;;10.00;;
14167;SDS011;7163;50.626;12.922;2023-02-28T15:01:41;15.43;;;10.47;;
14167;SDS011;7163;50.626;12.922;2023-02-28T15:06:41;15.63;;;11.17;;
14167;SDS011;7163;50.626;12.922;2023-02-28T15:11:44;13.57;;;9.67;;
14167;SDS011;7163;50.626;12.922;2023-02-28T15:16:48;14.83;;;10.00;;
14167;SDS011;7163;50.626;12.922;2023-02-28T15:21:53;16.43;;;11.07;;
14167;SDS011;7163;50.626;12.922;2023-02-28T15:26:58;17.30;;;12.17;;
14167;SDS011;7163;50.626;12.922;2023-02-28T15:32:01;19.43;;;12.50;;
14167;SDS011;7163;50.626;12.922;2023-02-28T15:37:07;34.43;;;19.43;;
14167;SDS011;7163;50.626;12.922;2023-02-28T15:42:30;24.07;;;14.07;;
14167;SDS011;7163;50.626;12.922;2023-02-28T15:47:31;43.80;;;22.87;;
14167;SDS011;7163;50.626;12.922;2023-02-28T15:52:42;22.07;;;14.53;;
14167;SDS011;7163;50.626;12.922;2023-02-28T15:57:43;24.10;;;15.03;;
14167;SDS011;7163;50.626;12.922;2023-02-28T16:02:46;24.50;;;16.67;;
14167;SDS011;7163;50.626;12.922;2023-02-28T16:07:46;27.43;;;16.17;;
14167;SDS011;7163;50.626;12.922;2023-02-28T16:12:48;30.07;;;16.40;;
14167;SDS011;7163;50.626;12.922;2023-02-28T16:17:49;36.90;;;21.20;;
14167;SDS011;7163;50.626;12.922;2023-02-28T16:22:50;25.53;;;15.60;;
14167;SDS011;7163;50.626;12.922;2023-02-28T16:27:50;28.73;;;17.47;;
14167;SDS011;7163;50.626;12.922;2023-02-28T16:32:54;23.93;;;13.80;;
14167;SDS011;7163;50.626;12.922;2023-02-28T16:37:55;28.73;;;15.00;;
14167;SDS011;7163;50.626;12.922;2023-02-28T16:42:57;23.20;;;14.17;;
14167;SDS011;7163;50.626;12.922;2023-02-28T16:47:58;22.80;;;14.47;;
14167;SDS011;7163;50.626;12.922;2023-02-28T16:52:59;26.63;;;14.90;;
14167;SDS011;7163;50.626;12.922;2023-02-28T16:58:00;23.17;;;13.53;;
14167;SDS011;7163;50.626;12.922;2023-02-28T17:03:01;25.17;;;14.30;;
14167;SDS011;7163;50.626;12.922;2023-02-28T17:08:02;35.60;;;18.67;;
14167;SDS011;7163;50.626;12.922;2023-02-28T17:13:02;75.20;;;30.80;;
14167;SDS011;7163;50.626;12.922;2023-02-28T17:18:03;74.20;;;31.10;;
14167;SDS011;7163;50.626;12.922;2023-02-28T17:23:03;46.20;;;23.27;;
14167;SDS011;7163;50.626;12.922;2023-02-28T17:28:04;79.57;;;35.90;;
14167;SDS011;7163;50.626;12.922;2023-02-28T17:33:04;50.83;;;26.30;;
14167;SDS011;7163;50.626;12.922;2023-02-28T17:38:05;34.10;;;17.27;;
14167;SDS011;7163;50.626;12.922;2023-02-28T17:43:07;34.10;;;18.70;;
14167;SDS011;7163;50.626;12.922;2023-02-28T17:48:09;36.23;;;20.43;;
14167;SDS011;7163;50.626;12.922;2023-02-28T17:53:10;33.57;;;19.20;;
14167;SDS011;7163;50.626;12.922;2023-02-28T17:58:10;40.43;;;21.17;;
14167;SDS011;7163;50.626;12.922;2023-02-28T18:03:12;33.03;;;18.63;;
14167;SDS011;7163;50.626;12.922;2023-02-28T18:08:13;43.33;;;21.93;;
14167;SDS011;7163;50.626;12.922;2023-02-28T18:13:14;39.93;;;21.00;;
14167;SDS011;7163;50.626;12.922;2023-02-28T18:18:14;34.40;;;20.37;;
14167;SDS011;7163;50.626;12.922;2023-02-28T18:23:15;39.20;;;20.40;;
14167;SDS011;7163;50.626;12.922;2023-02-28T18:28:17;41.77;;;19.93;;
14167;SDS011;7163;50.626;12.922;2023-02-28T18:33:17;40.63;;;21.43;;
14167;SDS011;7163;50.626;12.922;2023-02-28T18:38:19;43.50;;;21.67;;
14167;SDS011;7163;50.626;12.922;2023-02-28T18:43:19;41.37;;;22.67;;
14167;SDS011;7163;50.626;12.922;2023-02-28T18:48:20;46.03;;;23.43;;
14167;SDS011;7163;50.626;12.922;2023-02-28T18:53:22;41.27;;;20.60;;
14167;SDS011;7163;50.626;12.922;2023-02-28T18:58:22;58.10;;;27.40;;
14167;SDS011;7163;50.626;12.922;2023-02-28T19:03:23;43.87;;;21.50;;
14167;SDS011;7163;50.626;12.922;2023-02-28T19:08:23;47.43;;;23.87;;
14167;SDS011;7163;50.626;12.922;2023-02-28T19:13:24;50.40;;;23.63;;
14167;SDS011;7163;50.626;12.922;2023-02-28T19:18:25;46.17;;;24.10;;
14167;SDS011;7163;50.626;12.922;2023-02-28T19:23:26;37.07;;;20.47;;
14167;SDS011;7163;50.626;12.922;2023-02-28T19:28:28;34.50;;;19.13;;
14167;SDS011;7163;50.626;12.922;2023-02-28T19:33:29;65.17;;;31.93;;
14167;SDS011;7163;50.626;12.922;2023-02-28T19:38:30;49.93;;;27.07;;
14167;SDS011;7163;50.626;12.922;2023-02-28T19:43:31;55.67;;;28.70;;
14167;SDS011;7163;50.626;12.922;2023-02-28T19:48:31;69.00;;;30.23;;
14167;SDS011;7163;50.626;12.922;2023-02-28T19:53:32;66.73;;;32.50;;
14167;SDS011;7163;50.626;12.922;2023-02-28T19:58:33;40.87;;;21.93;;
14167;SDS011;7163;50.626;12.922;2023-02-28T20:03:34;45.57;;;19.33;;
14167;SDS011;7163;50.626;12.922;2023-02-28T20:08:35;33.20;;;17.97;;
14167;SDS011;7163;50.626;12.922;2023-02-28T20:13:36;29.53;;;15.67;;
14167;SDS011;7163;50.626;12.922;2023-02-28T20:18:37;29.10;;;15.27;;
14167;SDS011;7163;50.626;12.922;2023-02-28T20:23:39;26.27;;;14.77;;
14167;SDS011;7163;50.626;12.922;2023-02-28T20:28:40;40.93;;;20.13;;
14167;SDS011;7163;50.626;12.922;2023-02-28T20:33:41;55.87;;;26.17;;
14167;SDS011;7163;50.626;12.922;2023-02-28T20:38:42;37.97;;;20.83;;
14167;SDS011;7163;50.626;12.922;2023-02-28T20:43:43;54.87;;;30.03;;
14167;SDS011;7163;50.626;12.922;2023-02-28T20:48:44;44.57;;;24.17;;
14167;SDS011;7163;50.626;12.922;2023-02-28T20:53:45;34.67;;;20.00;;
14167;SDS011;7163;50.626;12.922;2023-02-28T20:58:46;71.47;;;26.13;;
14167;SDS011;7163;50.626;12.922;2023-02-28T21:03:48;31.13;;;15.13;;
14167;SDS011;7163;50.626;12.922;2023-02-28T21:08:49;33.83;;;18.60;;
14167;SDS011;7163;50.626;12.922;2023-02-28T21:13:49;40.00;;;19.30;;
14167;SDS011;7163;50.626;12.922;2023-02-28T21:18:51;30.80;;;15.87;;
14167;SDS011;7163;50.626;12.922;2023-02-28T21:23:52;28.17;;;13.00;;
14167;SDS011;7163;50.626;12.922;2023-02-28T21:28:53;30.30;;;14.23;;
14167;SDS011;7163;50.626;12.922;2023-02-28T21:33:56;22.20;;;12.37;;
14167;SDS011;7163;50.626;12.922;2023-02-28T21:38:59;26.97;;;12.43;;
14167;SDS011;7163;50.626;12.922;2023-02-28T21:44:02;25.30;;;11.27;;
14167;SDS011;7163;50.626;12.922;2023-02-28T21:49:02;26.17;;;13.70;;
14167;SDS011;7163;50.626;12.922;2023-02-28T21:54:03;29.30;;;14.27;;
14167;SDS011;7163;50.626;12.922;2023-02-28T21:59:03;35.73;;;15.80;;
14167;SDS011;7163;50.626;12.922;2023-02-28T22:04:06;31.90;;;15.83;;
14167;SDS011;7163;50.626;12.922;2023-02-28T22:09:08;29.10;;;15.23;;
14167;SDS011;7163;50.626;12.922;2023-02-28T22:14:09;27.60;;;13.17;;
14167;SDS011;7163;50.626;12.922;2023-02-28T22:19:10;22.37;;;12.53;;
14167;SDS011;7163;50.626;12.922;2023-02-28T22:24:12;22.77;;;11.60;;
14167;SDS011;7163;50.626;12.922;2023-02-28T22:29:13;23.10;;;11.80;;
14167;SDS011;7163;50.626;12.922;2023-02-28T22:34:13;25.13;;;12.40;;
14167;SDS011;7163;50.626;12.922;2023-02-28T22:39:14;27.47;;;14.47;;
14167;SDS011;7163;50.626;12.922;2023-02-28T22:44:15;26.00;;;13.00;;
14167;SDS011;7163;50.626;12.922;2023-02-28T22:49:15;25.07;;;13.17;;
14167;SDS011;7163;50.626;12.922;2023-02-28T22:54:15;26.93;;;12.30;;
14167;SDS011;7163;50.626;12.922;2023-02-28T22:59:16;20.43;;;11.00;;
14167;SDS011;7163;50.626;12.922;2023-02-28T23:04:17;22.40;;;10.73;;
14167;SDS011;7163;50.626;12.922;2023-02-28T23:09:18;22.63;;;11.20;;
14167;SDS011;7163;50.626;12.922;2023-02-28T23:14:20;20.67;;;11.40;;
14167;SDS011;7163;50.626;12.922;2023-02-28T23:19:26;23.33;;;12.80;;
14167;SDS011;7163;50.626;12.922;2023-02-28T23:24:30;23.70;;;11.53;;
14167;SDS011;7163;50.626;12.922;2023-02-28T23:29:32;18.00;;;9.93;;
14167;SDS011;7163;50.626;12.922;2023-02-28T23:34:33;20.73;;;10.33;;
14167;SDS011;7163;50.626;12.922;2023-02-28T23:39:33;21.57;;;10.93;;
14167;SDS011;7163;50.626;12.922;2023-02-28T23:44:34;24.17;;;11.40;;
14167;SDS011;7163;50.626;12.922;2023-02-28T23:49:34;27.43;;;11.37;;
14167;SDS011;7163;50.626;12.922;2023-02-28T23:54:34;18.27;;;10.33;;
14167;SDS011;7163;50.626;12.922;2023-02-28T23:59:35;18.87;;;10.73;;
